sensor_id;sensor_type;location;lat;lon;timestamp;P1;durP1;ratioP1;P2;durP2;ratioP2
18383;SDS011;9318;48.644;9.456;2023-05-07T00:01:21;0.90;;;0.90;;
18383;SDS011;9318;48.644;9.456;2023-05-07T00:03:48;0.80;;;0.80;;
18383;SDS011;9318;48.644;9.456;2023-05-07T00:06:16;0.90;;;0.90;;
18383;SDS011;9318;48.644;9.456;2023-05-07T00:08:43;0.80;;;0.80;;
18383;SDS011;9318;48.644;9.456;2023-05-07T00:11:09;0.90;;;0.90;;
18383;SDS011;9318;48.644;9.456;2023-05-07T00:13:36;0.83;;;0.83;;
18383;SDS011;9318;48.644;9.456;2023-05-07T00:16:03;0.90;;;0.90;;
18383;SDS011;9318;48.644;9.456;2023-05-07T00:18:30;0.90;;;0.90;;
18383;SDS011;9318;48.644;9.456;2023-05-07T00:20:57;0.90;;;0.90;;
18383;SDS011;9318;48.644;9.456;2023-05-07T00:23:25;0.80;;;0.80;;
18383;SDS011;9318;48.644;9.456;2023-05-07T00:25:52;0.80;;;0.80;;
18383;SDS011;9318;48.644;9.456;2023-05-07T00:28:19;0.80;;;0.80;;
18383;SDS011;9318;48.644;9.456;2023-05-07T00:30:46;0.87;;;0.87;;
18383;SDS011;9318;48.644;9.456;2023-05-07T00:33:12;0.80;;;0.80;;
18383;SDS011;9318;48.644;9.456;2023-05-07T00:35:39;0.80;;;0.80;;
18383;SDS011;9318;48.644;9.456;2023-05-07T00:38:06;0.80;;;0.80;;
18383;SDS011;9318;48.644;9.456;2023-05-07T00:40:34;0.80;;;0.80;;
18383;SDS011;9318;48.644;9.456;2023-05-07T00:43:01;0.80;;;0.80;;
18383;SDS011;9318;48.644;9.456;2023-05-07T00:45:28;0.70;;;0.70;;
18383;SDS011;9318;48.644;9.456;2023-05-07T00:47:55;0.80;;;0.80;;
18383;SDS011;9318;48.644;9.456;2023-05-07T00:50:24;0.90;;;0.90;;
18383;SDS011;9318;48.644;9.456;2023-05-07T00:52:52;0.90;;;0.90;;
18383;SDS011;9318;48.644;9.456;2023-05-07T00:55:20;1.00;;;1.00;;
18383;SDS011;9318;48.644;9.456;2023-05-07T00:57:49;0.90;;;0.90;;
18383;SDS011;9318;48.644;9.456;2023-05-07T01:00:16;0.90;;;0.90;;
18383;SDS011;9318;48.644;9.456;2023-05-07T01:02:44;0.90;;;0.90;;
18383;SDS011;9318;48.644;9.456;2023-05-07T01:05:12;1.00;;;1.00;;
18383;SDS011;9318;48.644;9.456;2023-05-07T01:07:41;0.90;;;0.90;;
18383;SDS011;9318;48.644;9.456;2023-05-07T01:10:09;0.97;;;0.97;;
18383;SDS011;9318;48.644;9.456;2023-05-07T01:12:37;0.97;;;0.97;;
18383;SDS011;9318;48.644;9.456;2023-05-07T01:15:08;0.90;;;0.90;;
18383;SDS011;9318;48.644;9.456;2023-05-07T01:17:35;0.93;;;0.93;;
18383;SDS011;9318;48.644;9.456;2023-05-07T01:20:03;1.00;;;1.00;;
18383;SDS011;9318;48.644;9.456;2023-05-07T01:22:33;0.87;;;0.87;;
18383;SDS011;9318;48.644;9.456;2023-05-07T01:25:02;0.90;;;0.90;;
18383;SDS011;9318;48.644;9.456;2023-05-07T01:27:29;0.90;;;0.90;;
18383;SDS011;9318;48.644;9.456;2023-05-07T01:29:58;0.90;;;0.90;;
18383;SDS011;9318;48.644;9.456;2023-05-07T01:32:26;1.00;;;1.00;;
18383;SDS011;9318;48.644;9.456;2023-05-07T01:34:55;0.90;;;0.90;;
18383;SDS011;9318;48.644;9.456;2023-05-07T01:37:23;0.87;;;0.87;;
18383;SDS011;9318;48.644;9.456;2023-05-07T01:39:53;0.90;;;0.90;;
18383;SDS011;9318;48.644;9.456;2023-05-07T01:42:20;0.90;;;0.90;;
18383;SDS011;9318;48.644;9.456;2023-05-07T01:44:48;0.90;;;0.90;;
18383;SDS011;9318;48.644;9.456;2023-05-07T01:47:14;1.00;;;1.00;;
18383;SDS011;9318;48.644;9.456;2023-05-07T01:49:42;0.90;;;0.90;;
18383;SDS011;9318;48.644;9.456;2023-05-07T01:52:10;0.90;;;0.90;;
18383;SDS011;9318;48.644;9.456;2023-05-07T01:54:37;0.80;;;0.80;;
18383;SDS011;9318;48.644;9.456;2023-05-07T01:57:05;0.90;;;0.90;;
18383;SDS011;9318;48.644;9.456;2023-05-07T01:59:32;0.90;;;0.90;;
18383;SDS011;9318;48.644;9.456;2023-05-07T02:01:59;1.00;;;1.00;;
18383;SDS011;9318;48.644;9.456;2023-05-07T02:04:25;0.97;;;0.97;;
18383;SDS011;9318;48.644;9.456;2023-05-07T02:06:52;1.00;;;1.00;;
18383;SDS011;9318;48.644;9.456;2023-05-07T02:09:19;0.80;;;0.80;;
18383;SDS011;9318;48.644;9.456;2023-05-07T02:11:46;0.90;;;0.90;;
18383;SDS011;9318;48.644;9.456;2023-05-07T02:14:14;1.00;;;1.00;;
18383;SDS011;9318;48.644;9.456;2023-05-07T02:16:40;0.90;;;0.90;;
18383;SDS011;9318;48.644;9.456;2023-05-07T02:19:07;0.90;;;0.90;;
18383;SDS011;9318;48.644;9.456;2023-05-07T02:21:34;0.80;;;0.80;;
18383;SDS011;9318;48.644;9.456;2023-05-07T02:24:01;0.90;;;0.90;;
18383;SDS011;9318;48.644;9.456;2023-05-07T02:26:27;0.90;;;0.90;;
18383;SDS011;9318;48.644;9.456;2023-05-07T02:28:54;0.90;;;0.90;;
18383;SDS011;9318;48.644;9.456;2023-05-07T02:31:22;0.90;;;0.90;;
18383;SDS011;9318;48.644;9.456;2023-05-07T02:33:49;0.90;;;0.90;;
18383;SDS011;9318;48.644;9.456;2023-05-07T02:36:16;1.10;;;1.10;;
18383;SDS011;9318;48.644;9.456;2023-05-07T02:38:42;0.80;;;0.80;;
18383;SDS011;9318;48.644;9.456;2023-05-07T02:41:09;0.90;;;0.90;;
18383;SDS011;9318;48.644;9.456;2023-05-07T02:43:36;0.90;;;0.90;;
18383;SDS011;9318;48.644;9.456;2023-05-07T02:46:03;0.83;;;0.83;;
18383;SDS011;9318;48.644;9.456;2023-05-07T02:48:31;0.97;;;0.97;;
18383;SDS011;9318;48.644;9.456;2023-05-07T02:50:58;0.90;;;0.90;;
18383;SDS011;9318;48.644;9.456;2023-05-07T02:53:26;1.00;;;1.00;;
18383;SDS011;9318;48.644;9.456;2023-05-07T02:55:55;1.00;;;1.00;;
18383;SDS011;9318;48.644;9.456;2023-05-07T02:58:22;0.90;;;0.90;;
18383;SDS011;9318;48.644;9.456;2023-05-07T03:00:49;0.90;;;0.90;;
18383;SDS011;9318;48.644;9.456;2023-05-07T03:03:16;0.80;;;0.80;;
18383;SDS011;9318;48.644;9.456;2023-05-07T03:05:44;0.83;;;0.83;;
18383;SDS011;9318;48.644;9.456;2023-05-07T03:08:11;0.93;;;0.93;;
18383;SDS011;9318;48.644;9.456;2023-05-07T03:10:38;0.90;;;0.90;;
18383;SDS011;9318;48.644;9.456;2023-05-07T03:13:05;0.90;;;0.90;;
18383;SDS011;9318;48.644;9.456;2023-05-07T03:15:31;0.90;;;0.90;;
18383;SDS011;9318;48.644;9.456;2023-05-07T03:17:58;1.00;;;1.00;;
18383;SDS011;9318;48.644;9.456;2023-05-07T03:20:25;0.90;;;0.90;;
18383;SDS011;9318;48.644;9.456;2023-05-07T03:22:53;0.93;;;0.93;;
18383;SDS011;9318;48.644;9.456;2023-05-07T03:25:20;0.80;;;0.80;;
18383;SDS011;9318;48.644;9.456;2023-05-07T03:27:46;0.90;;;0.90;;
18383;SDS011;9318;48.644;9.456;2023-05-07T03:30:13;0.90;;;0.90;;
18383;SDS011;9318;48.644;9.456;2023-05-07T03:32:40;0.83;;;0.83;;
18383;SDS011;9318;48.644;9.456;2023-05-07T03:35:07;0.90;;;0.90;;
18383;SDS011;9318;48.644;9.456;2023-05-07T03:37:33;0.90;;;0.90;;
18383;SDS011;9318;48.644;9.456;2023-05-07T03:40:02;1.00;;;1.00;;
18383;SDS011;9318;48.644;9.456;2023-05-07T03:42:29;1.00;;;1.00;;
18383;SDS011;9318;48.644;9.456;2023-05-07T03:44:55;1.00;;;1.00;;
18383;SDS011;9318;48.644;9.456;2023-05-07T03:47:22;0.97;;;0.97;;
18383;SDS011;9318;48.644;9.456;2023-05-07T03:49:49;1.00;;;1.00;;
18383;SDS011;9318;48.644;9.456;2023-05-07T03:52:17;0.80;;;0.80;;
18383;SDS011;9318;48.644;9.456;2023-05-07T03:54:48;0.90;;;0.90;;
18383;SDS011;9318;48.644;9.456;2023-05-07T03:57:16;0.90;;;0.90;;
18383;SDS011;9318;48.644;9.456;2023-05-07T03:59:43;1.00;;;1.00;;
18383;SDS011;9318;48.644;9.456;2023-05-07T04:02:10;1.00;;;1.00;;
18383;SDS011;9318;48.644;9.456;2023-05-07T04:04:37;1.03;;;1.03;;
18383;SDS011;9318;48.644;9.456;2023-05-07T04:07:03;0.90;;;0.90;;
18383;SDS011;9318;48.644;9.456;2023-05-07T04:09:30;1.00;;;1.00;;
18383;SDS011;9318;48.644;9.456;2023-05-07T04:11:57;1.10;;;1.10;;
18383;SDS011;9318;48.644;9.456;2023-05-07T04:14:25;1.00;;;1.00;;
18383;SDS011;9318;48.644;9.456;2023-05-07T04:16:51;1.00;;;1.00;;
18383;SDS011;9318;48.644;9.456;2023-05-07T04:19:18;0.90;;;0.90;;
18383;SDS011;9318;48.644;9.456;2023-05-07T04:21:45;0.93;;;0.93;;
18383;SDS011;9318;48.644;9.456;2023-05-07T04:24:12;0.90;;;0.90;;
18383;SDS011;9318;48.644;9.456;2023-05-07T04:26:38;0.80;;;0.80;;
18383;SDS011;9318;48.644;9.456;2023-05-07T04:29:05;0.90;;;0.90;;
18383;SDS011;9318;48.644;9.456;2023-05-07T04:31:34;0.90;;;0.90;;
18383;SDS011;9318;48.644;9.456;2023-05-07T04:34:00;0.80;;;0.80;;
18383;SDS011;9318;48.644;9.456;2023-05-07T04:36:27;0.87;;;0.87;;
18383;SDS011;9318;48.644;9.456;2023-05-07T04:38:54;1.00;;;1.00;;
18383;SDS011;9318;48.644;9.456;2023-05-07T04:41:21;1.00;;;1.00;;
18383;SDS011;9318;48.644;9.456;2023-05-07T04:43:48;0.90;;;0.90;;
18383;SDS011;9318;48.644;9.456;2023-05-07T04:46:14;0.90;;;0.90;;
18383;SDS011;9318;48.644;9.456;2023-05-07T04:48:42;0.90;;;0.90;;
18383;SDS011;9318;48.644;9.456;2023-05-07T04:51:09;1.00;;;1.00;;
18383;SDS011;9318;48.644;9.456;2023-05-07T04:53:36;0.97;;;0.97;;
18383;SDS011;9318;48.644;9.456;2023-05-07T04:56:04;0.90;;;0.90;;
18383;SDS011;9318;48.644;9.456;2023-05-07T04:58:30;0.90;;;0.90;;
18383;SDS011;9318;48.644;9.456;2023-05-07T05:00:57;0.83;;;0.83;;
18383;SDS011;9318;48.644;9.456;2023-05-07T05:03:25;1.00;;;1.00;;
18383;SDS011;9318;48.644;9.456;2023-05-07T05:05:53;0.90;;;0.90;;
18383;SDS011;9318;48.644;9.456;2023-05-07T05:08:20;0.90;;;0.90;;
18383;SDS011;9318;48.644;9.456;2023-05-07T05:10:46;0.90;;;0.90;;
18383;SDS011;9318;48.644;9.456;2023-05-07T05:13:14;0.90;;;0.90;;
18383;SDS011;9318;48.644;9.456;2023-05-07T05:15:41;0.80;;;0.80;;
18383;SDS011;9318;48.644;9.456;2023-05-07T05:18:08;0.90;;;0.90;;
18383;SDS011;9318;48.644;9.456;2023-05-07T05:20:35;1.00;;;1.00;;
18383;SDS011;9318;48.644;9.456;2023-05-07T05:23:03;0.80;;;0.80;;
18383;SDS011;9318;48.644;9.456;2023-05-07T05:25:30;0.77;;;0.77;;
18383;SDS011;9318;48.644;9.456;2023-05-07T05:27:57;0.97;;;0.97;;
18383;SDS011;9318;48.644;9.456;2023-05-07T05:30:24;0.90;;;0.90;;
18383;SDS011;9318;48.644;9.456;2023-05-07T05:32:51;0.90;;;0.90;;
18383;SDS011;9318;48.644;9.456;2023-05-07T05:35:17;0.87;;;0.87;;
18383;SDS011;9318;48.644;9.456;2023-05-07T05:37:44;0.80;;;0.80;;
18383;SDS011;9318;48.644;9.456;2023-05-07T05:40:12;0.90;;;0.90;;
18383;SDS011;9318;48.644;9.456;2023-05-07T05:42:39;0.87;;;0.87;;
18383;SDS011;9318;48.644;9.456;2023-05-07T05:45:06;1.10;;;1.10;;
18383;SDS011;9318;48.644;9.456;2023-05-07T05:47:34;0.90;;;0.90;;
18383;SDS011;9318;48.644;9.456;2023-05-07T05:50:01;0.93;;;0.93;;
18383;SDS011;9318;48.644;9.456;2023-05-07T05:52:28;0.80;;;0.80;;
18383;SDS011;9318;48.644;9.456;2023-05-07T05:54:55;0.90;;;0.90;;
18383;SDS011;9318;48.644;9.456;2023-05-07T05:57:23;0.80;;;0.80;;
18383;SDS011;9318;48.644;9.456;2023-05-07T05:59:50;0.70;;;0.70;;
18383;SDS011;9318;48.644;9.456;2023-05-07T06:02:17;0.80;;;0.80;;
18383;SDS011;9318;48.644;9.456;2023-05-07T06:04:43;0.77;;;0.77;;
18383;SDS011;9318;48.644;9.456;2023-05-07T06:07:10;0.90;;;0.90;;
18383;SDS011;9318;48.644;9.456;2023-05-07T06:09:37;0.70;;;0.70;;
18383;SDS011;9318;48.644;9.456;2023-05-07T06:12:03;0.70;;;0.70;;
18383;SDS011;9318;48.644;9.456;2023-05-07T06:14:32;0.70;;;0.70;;
18383;SDS011;9318;48.644;9.456;2023-05-07T06:16:59;0.80;;;0.80;;
18383;SDS011;9318;48.644;9.456;2023-05-07T06:19:25;0.70;;;0.70;;
18383;SDS011;9318;48.644;9.456;2023-05-07T06:21:53;0.70;;;0.70;;
18383;SDS011;9318;48.644;9.456;2023-05-07T06:24:21;0.70;;;0.70;;
18383;SDS011;9318;48.644;9.456;2023-05-07T06:26:48;0.60;;;0.60;;
18383;SDS011;9318;48.644;9.456;2023-05-07T06:29:14;0.65;;;0.65;;
18383;SDS011;9318;48.644;9.456;2023-05-07T06:31:42;0.63;;;0.63;;
18383;SDS011;9318;48.644;9.456;2023-05-07T06:34:09;0.70;;;0.70;;
18383;SDS011;9318;48.644;9.456;2023-05-07T06:36:39;0.60;;;0.60;;
18383;SDS011;9318;48.644;9.456;2023-05-07T06:39:06;0.70;;;0.70;;
18383;SDS011;9318;48.644;9.456;2023-05-07T06:41:32;0.68;;;0.68;;
18383;SDS011;9318;48.644;9.456;2023-05-07T06:44:00;0.50;;;0.50;;
18383;SDS011;9318;48.644;9.456;2023-05-07T06:46:27;0.60;;;0.60;;
18383;SDS011;9318;48.644;9.456;2023-05-07T06:48:56;0.60;;;0.60;;
18383;SDS011;9318;48.644;9.456;2023-05-07T06:51:22;0.60;;;0.60;;
18383;SDS011;9318;48.644;9.456;2023-05-07T06:53:49;0.40;;;0.40;;
18383;SDS011;9318;48.644;9.456;2023-05-07T06:56:16;0.52;;;0.52;;
18383;SDS011;9318;48.644;9.456;2023-05-07T06:58:43;0.40;;;0.40;;
18383;SDS011;9318;48.644;9.456;2023-05-07T07:01:09;0.50;;;0.50;;
18383;SDS011;9318;48.644;9.456;2023-05-07T07:03:36;0.50;;;0.50;;
18383;SDS011;9318;48.644;9.456;2023-05-07T07:06:04;0.50;;;0.50;;
18383;SDS011;9318;48.644;9.456;2023-05-07T07:08:31;0.50;;;0.50;;
18383;SDS011;9318;48.644;9.456;2023-05-07T07:10:59;0.40;;;0.40;;
18383;SDS011;9318;48.644;9.456;2023-05-07T07:13:26;0.30;;;0.30;;
18383;SDS011;9318;48.644;9.456;2023-05-07T07:15:52;0.35;;;0.35;;
18383;SDS011;9318;48.644;9.456;2023-05-07T07:18:19;0.40;;;0.40;;
18383;SDS011;9318;48.644;9.456;2023-05-07T07:20:46;0.40;;;0.40;;
18383;SDS011;9318;48.644;9.456;2023-05-07T07:23:14;0.32;;;0.32;;
18383;SDS011;9318;48.644;9.456;2023-05-07T07:25:41;0.30;;;0.30;;
18383;SDS011;9318;48.644;9.456;2023-05-07T07:28:08;0.40;;;0.40;;
18383;SDS011;9318;48.644;9.456;2023-05-07T07:30:35;0.30;;;0.30;;
18383;SDS011;9318;48.644;9.456;2023-05-07T07:33:02;0.30;;;0.30;;
18383;SDS011;9318;48.644;9.456;2023-05-07T07:35:30;0.40;;;0.40;;
18383;SDS011;9318;48.644;9.456;2023-05-07T07:37:56;0.30;;;0.30;;
18383;SDS011;9318;48.644;9.456;2023-05-07T07:40:25;0.30;;;0.30;;
18383;SDS011;9318;48.644;9.456;2023-05-07T07:42:52;0.30;;;0.30;;
18383;SDS011;9318;48.644;9.456;2023-05-07T07:45:19;0.30;;;0.30;;
18383;SDS011;9318;48.644;9.456;2023-05-07T07:47:46;0.30;;;0.30;;
18383;SDS011;9318;48.644;9.456;2023-05-07T07:50:13;0.32;;;0.32;;
18383;SDS011;9318;48.644;9.456;2023-05-07T07:52:40;0.30;;;0.30;;
18383;SDS011;9318;48.644;9.456;2023-05-07T07:55:07;0.32;;;0.32;;
18383;SDS011;9318;48.644;9.456;2023-05-07T07:57:36;0.30;;;0.30;;
18383;SDS011;9318;48.644;9.456;2023-05-07T08:00:03;0.40;;;0.40;;
18383;SDS011;9318;48.644;9.456;2023-05-07T08:02:31;0.20;;;0.20;;
18383;SDS011;9318;48.644;9.456;2023-05-07T08:04:58;0.20;;;0.20;;
18383;SDS011;9318;48.644;9.456;2023-05-07T08:07:24;0.30;;;0.30;;
18383;SDS011;9318;48.644;9.456;2023-05-07T08:09:51;0.30;;;0.30;;
18383;SDS011;9318;48.644;9.456;2023-05-07T08:12:18;0.30;;;0.30;;
18383;SDS011;9318;48.644;9.456;2023-05-07T08:14:46;0.30;;;0.30;;
18383;SDS011;9318;48.644;9.456;2023-05-07T08:17:13;0.30;;;0.30;;
18383;SDS011;9318;48.644;9.456;2023-05-07T08:19:40;0.40;;;0.40;;
18383;SDS011;9318;48.644;9.456;2023-05-07T08:22:08;0.30;;;0.30;;
18383;SDS011;9318;48.644;9.456;2023-05-07T08:24:35;0.30;;;0.30;;
18383;SDS011;9318;48.644;9.456;2023-05-07T08:27:02;0.28;;;0.28;;
18383;SDS011;9318;48.644;9.456;2023-05-07T08:29:29;0.20;;;0.20;;
18383;SDS011;9318;48.644;9.456;2023-05-07T08:31:57;0.20;;;0.20;;
18383;SDS011;9318;48.644;9.456;2023-05-07T08:34:24;0.30;;;0.30;;
18383;SDS011;9318;48.644;9.456;2023-05-07T08:36:51;0.30;;;0.30;;
18383;SDS011;9318;48.644;9.456;2023-05-07T08:39:18;0.30;;;0.30;;
18383;SDS011;9318;48.644;9.456;2023-05-07T08:41:44;0.30;;;0.30;;
18383;SDS011;9318;48.644;9.456;2023-05-07T08:44:12;0.30;;;0.30;;
18383;SDS011;9318;48.644;9.456;2023-05-07T08:46:40;0.38;;;0.38;;
18383;SDS011;9318;48.644;9.456;2023-05-07T08:49:09;0.30;;;0.30;;
18383;SDS011;9318;48.644;9.456;2023-05-07T08:51:36;0.30;;;0.30;;
18383;SDS011;9318;48.644;9.456;2023-05-07T08:54:04;0.30;;;0.30;;
18383;SDS011;9318;48.644;9.456;2023-05-07T08:56:31;0.30;;;0.30;;
18383;SDS011;9318;48.644;9.456;2023-05-07T08:58:58;0.40;;;0.40;;
18383;SDS011;9318;48.644;9.456;2023-05-07T09:01:25;0.30;;;0.30;;
18383;SDS011;9318;48.644;9.456;2023-05-07T09:03:52;0.30;;;0.30;;
18383;SDS011;9318;48.644;9.456;2023-05-07T09:06:21;0.38;;;0.38;;
18383;SDS011;9318;48.644;9.456;2023-05-07T09:08:51;0.32;;;0.32;;
18383;SDS011;9318;48.644;9.456;2023-05-07T09:11:22;0.20;;;0.20;;
18383;SDS011;9318;48.644;9.456;2023-05-07T09:13:53;0.32;;;0.32;;
18383;SDS011;9318;48.644;9.456;2023-05-07T09:16:21;0.40;;;0.40;;
18383;SDS011;9318;48.644;9.456;2023-05-07T09:18:50;0.30;;;0.30;;
18383;SDS011;9318;48.644;9.456;2023-05-07T09:21:18;0.20;;;0.20;;
18383;SDS011;9318;48.644;9.456;2023-05-07T09:23:47;0.30;;;0.30;;
18383;SDS011;9318;48.644;9.456;2023-05-07T09:26:16;0.20;;;0.20;;
18383;SDS011;9318;48.644;9.456;2023-05-07T09:28:43;0.30;;;0.30;;
18383;SDS011;9318;48.644;9.456;2023-05-07T09:31:11;0.30;;;0.30;;
18383;SDS011;9318;48.644;9.456;2023-05-07T09:33:38;0.20;;;0.20;;
18383;SDS011;9318;48.644;9.456;2023-05-07T09:36:06;0.30;;;0.30;;
18383;SDS011;9318;48.644;9.456;2023-05-07T09:38:36;0.20;;;0.20;;
18383;SDS011;9318;48.644;9.456;2023-05-07T09:41:04;0.30;;;0.30;;
18383;SDS011;9318;48.644;9.456;2023-05-07T09:43:32;0.30;;;0.30;;
18383;SDS011;9318;48.644;9.456;2023-05-07T09:46:01;0.30;;;0.30;;
18383;SDS011;9318;48.644;9.456;2023-05-07T09:48:29;0.20;;;0.20;;
18383;SDS011;9318;48.644;9.456;2023-05-07T09:50:56;0.40;;;0.40;;
18383;SDS011;9318;48.644;9.456;2023-05-07T09:53:28;0.40;;;0.40;;
18383;SDS011;9318;48.644;9.456;2023-05-07T09:55:57;0.40;;;0.40;;
18383;SDS011;9318;48.644;9.456;2023-05-07T09:58:25;0.38;;;0.38;;
18383;SDS011;9318;48.644;9.456;2023-05-07T10:00:52;0.40;;;0.40;;
18383;SDS011;9318;48.644;9.456;2023-05-07T10:03:20;0.40;;;0.40;;
18383;SDS011;9318;48.644;9.456;2023-05-07T10:05:50;0.35;;;0.35;;
18383;SDS011;9318;48.644;9.456;2023-05-07T10:08:17;0.40;;;0.40;;
18383;SDS011;9318;48.644;9.456;2023-05-07T10:10:45;0.32;;;0.32;;
18383;SDS011;9318;48.644;9.456;2023-05-07T10:13:13;0.40;;;0.40;;
18383;SDS011;9318;48.644;9.456;2023-05-07T10:15:40;0.40;;;0.40;;
18383;SDS011;9318;48.644;9.456;2023-05-07T10:18:07;0.30;;;0.30;;
18383;SDS011;9318;48.644;9.456;2023-05-07T10:20:34;0.40;;;0.40;;
18383;SDS011;9318;48.644;9.456;2023-05-07T10:23:03;0.40;;;0.40;;
18383;SDS011;9318;48.644;9.456;2023-05-07T10:25:31;0.30;;;0.30;;
18383;SDS011;9318;48.644;9.456;2023-05-07T10:27:59;0.35;;;0.35;;
18383;SDS011;9318;48.644;9.456;2023-05-07T10:30:34;0.43;;;0.43;;
18383;SDS011;9318;48.644;9.456;2023-05-07T10:33:08;0.40;;;0.40;;
18383;SDS011;9318;48.644;9.456;2023-05-07T10:35:40;0.30;;;0.30;;
18383;SDS011;9318;48.644;9.456;2023-05-07T10:38:09;0.40;;;0.40;;
18383;SDS011;9318;48.644;9.456;2023-05-07T10:40:36;0.40;;;0.40;;
18383;SDS011;9318;48.644;9.456;2023-05-07T10:43:04;0.40;;;0.40;;
18383;SDS011;9318;48.644;9.456;2023-05-07T10:45:32;0.50;;;0.50;;
18383;SDS011;9318;48.644;9.456;2023-05-07T10:48:06;0.30;;;0.30;;
18383;SDS011;9318;48.644;9.456;2023-05-07T10:50:33;0.40;;;0.40;;
18383;SDS011;9318;48.644;9.456;2023-05-07T10:58:55;0.50;;;0.50;;
18383;SDS011;9318;48.644;9.456;2023-05-07T11:04:18;0.40;;;0.40;;
18383;SDS011;9318;48.644;9.456;2023-05-07T11:10:02;0.50;;;0.50;;
18383;SDS011;9318;48.644;9.456;2023-05-07T11:18:18;0.45;;;0.45;;
18383;SDS011;9318;48.644;9.456;2023-05-07T11:20:46;0.50;;;0.50;;
18383;SDS011;9318;48.644;9.456;2023-05-07T11:26:23;0.40;;;0.40;;
18383;SDS011;9318;48.644;9.456;2023-05-07T11:28:51;0.50;;;0.50;;
18383;SDS011;9318;48.644;9.456;2023-05-07T11:31:20;0.50;;;0.50;;
18383;SDS011;9318;48.644;9.456;2023-05-07T11:33:49;0.40;;;0.40;;
18383;SDS011;9318;48.644;9.456;2023-05-07T11:36:18;0.50;;;0.50;;
18383;SDS011;9318;48.644;9.456;2023-05-07T11:38:45;0.40;;;0.40;;
18383;SDS011;9318;48.644;9.456;2023-05-07T11:41:12;0.50;;;0.50;;
18383;SDS011;9318;48.644;9.456;2023-05-07T11:43:53;0.30;;;0.30;;
18383;SDS011;9318;48.644;9.456;2023-05-07T11:46:21;0.50;;;0.50;;
18383;SDS011;9318;48.644;9.456;2023-05-07T11:48:47;0.40;;;0.40;;
18383;SDS011;9318;48.644;9.456;2023-05-07T11:51:18;0.45;;;0.45;;
18383;SDS011;9318;48.644;9.456;2023-05-07T11:53:46;0.50;;;0.50;;
18383;SDS011;9318;48.644;9.456;2023-05-07T11:56:13;0.40;;;0.40;;
18383;SDS011;9318;48.644;9.456;2023-05-07T11:58:41;0.40;;;0.40;;
18383;SDS011;9318;48.644;9.456;2023-05-07T12:01:09;0.40;;;0.40;;
18383;SDS011;9318;48.644;9.456;2023-05-07T12:03:39;0.40;;;0.40;;
18383;SDS011;9318;48.644;9.456;2023-05-07T12:06:09;0.40;;;0.40;;
18383;SDS011;9318;48.644;9.456;2023-05-07T12:08:37;0.40;;;0.40;;
18383;SDS011;9318;48.644;9.456;2023-05-07T12:11:08;0.40;;;0.40;;
18383;SDS011;9318;48.644;9.456;2023-05-07T12:13:38;0.40;;;0.40;;
18383;SDS011;9318;48.644;9.456;2023-05-07T12:16:05;0.40;;;0.40;;
18383;SDS011;9318;48.644;9.456;2023-05-07T12:18:33;0.40;;;0.40;;
18383;SDS011;9318;48.644;9.456;2023-05-07T12:21:01;0.40;;;0.40;;
18383;SDS011;9318;48.644;9.456;2023-05-07T12:23:30;0.38;;;0.38;;
18383;SDS011;9318;48.644;9.456;2023-05-07T12:25:57;0.40;;;0.40;;
18383;SDS011;9318;48.644;9.456;2023-05-07T12:28:25;0.40;;;0.40;;
18383;SDS011;9318;48.644;9.456;2023-05-07T12:30:51;0.40;;;0.40;;
18383;SDS011;9318;48.644;9.456;2023-05-07T12:33:23;0.50;;;0.50;;
18383;SDS011;9318;48.644;9.456;2023-05-07T12:35:52;0.50;;;0.50;;
18383;SDS011;9318;48.644;9.456;2023-05-07T12:38:20;0.50;;;0.50;;
18383;SDS011;9318;48.644;9.456;2023-05-07T12:40:49;0.40;;;0.40;;
18383;SDS011;9318;48.644;9.456;2023-05-07T12:43:17;0.50;;;0.50;;
18383;SDS011;9318;48.644;9.456;2023-05-07T12:45:44;0.43;;;0.43;;
18383;SDS011;9318;48.644;9.456;2023-05-07T12:48:12;0.50;;;0.50;;
18383;SDS011;9318;48.644;9.456;2023-05-07T12:50:39;0.30;;;0.30;;
18383;SDS011;9318;48.644;9.456;2023-05-07T12:53:06;0.50;;;0.50;;
18383;SDS011;9318;48.644;9.456;2023-05-07T12:55:40;0.50;;;0.50;;
18383;SDS011;9318;48.644;9.456;2023-05-07T12:58:09;0.47;;;0.47;;
18383;SDS011;9318;48.644;9.456;2023-05-07T13:00:41;0.40;;;0.40;;
18383;SDS011;9318;48.644;9.456;2023-05-07T13:03:09;0.50;;;0.50;;
18383;SDS011;9318;48.644;9.456;2023-05-07T13:05:36;0.43;;;0.43;;
18383;SDS011;9318;48.644;9.456;2023-05-07T13:08:03;0.55;;;0.55;;
18383;SDS011;9318;48.644;9.456;2023-05-07T13:10:30;0.60;;;0.60;;
18383;SDS011;9318;48.644;9.456;2023-05-07T13:12:57;0.52;;;0.52;;
18383;SDS011;9318;48.644;9.456;2023-05-07T13:15:26;0.70;;;0.70;;
18383;SDS011;9318;48.644;9.456;2023-05-07T13:17:53;0.52;;;0.52;;
18383;SDS011;9318;48.644;9.456;2023-05-07T13:20:20;0.50;;;0.50;;
18383;SDS011;9318;48.644;9.456;2023-05-07T13:22:46;0.60;;;0.60;;
18383;SDS011;9318;48.644;9.456;2023-05-07T13:25:13;0.60;;;0.60;;
18383;SDS011;9318;48.644;9.456;2023-05-07T13:27:40;0.70;;;0.70;;
18383;SDS011;9318;48.644;9.456;2023-05-07T13:30:07;0.60;;;0.60;;
18383;SDS011;9318;48.644;9.456;2023-05-07T13:32:35;0.60;;;0.60;;
18383;SDS011;9318;48.644;9.456;2023-05-07T13:35:02;0.70;;;0.70;;
18383;SDS011;9318;48.644;9.456;2023-05-07T13:37:29;0.60;;;0.60;;
18383;SDS011;9318;48.644;9.456;2023-05-07T13:39:56;0.65;;;0.65;;
18383;SDS011;9318;48.644;9.456;2023-05-07T13:42:23;0.70;;;0.70;;
18383;SDS011;9318;48.644;9.456;2023-05-07T13:44:49;0.80;;;0.80;;
18383;SDS011;9318;48.644;9.456;2023-05-07T13:47:16;0.70;;;0.70;;
18383;SDS011;9318;48.644;9.456;2023-05-07T13:49:44;0.60;;;0.60;;
18383;SDS011;9318;48.644;9.456;2023-05-07T13:52:11;0.80;;;0.80;;
18383;SDS011;9318;48.644;9.456;2023-05-07T13:54:38;0.80;;;0.80;;
18383;SDS011;9318;48.644;9.456;2023-05-07T13:57:05;0.70;;;0.70;;
18383;SDS011;9318;48.644;9.456;2023-05-07T13:59:33;0.80;;;0.80;;
18383;SDS011;9318;48.644;9.456;2023-05-07T14:01:59;0.70;;;0.70;;
18383;SDS011;9318;48.644;9.456;2023-05-07T14:04:26;0.70;;;0.70;;
18383;SDS011;9318;48.644;9.456;2023-05-07T14:06:54;0.80;;;0.80;;
18383;SDS011;9318;48.644;9.456;2023-05-07T14:09:21;0.80;;;0.80;;
18383;SDS011;9318;48.644;9.456;2023-05-07T14:11:48;0.80;;;0.80;;
18383;SDS011;9318;48.644;9.456;2023-05-07T14:14:16;0.70;;;0.70;;
18383;SDS011;9318;48.644;9.456;2023-05-07T14:16:43;0.77;;;0.77;;
18383;SDS011;9318;48.644;9.456;2023-05-07T14:19:09;0.70;;;0.70;;
18383;SDS011;9318;48.644;9.456;2023-05-07T14:21:36;0.80;;;0.80;;
18383;SDS011;9318;48.644;9.456;2023-05-07T14:24:05;0.80;;;0.80;;
18383;SDS011;9318;48.644;9.456;2023-05-07T14:26:32;0.70;;;0.70;;
18383;SDS011;9318;48.644;9.456;2023-05-07T14:28:59;0.80;;;0.80;;
18383;SDS011;9318;48.644;9.456;2023-05-07T14:31:26;0.70;;;0.70;;
18383;SDS011;9318;48.644;9.456;2023-05-07T14:33:53;0.80;;;0.80;;
18383;SDS011;9318;48.644;9.456;2023-05-07T14:36:19;0.80;;;0.80;;
18383;SDS011;9318;48.644;9.456;2023-05-07T14:38:47;0.68;;;0.68;;
18383;SDS011;9318;48.644;9.456;2023-05-07T14:41:16;0.75;;;0.75;;
18383;SDS011;9318;48.644;9.456;2023-05-07T14:43:42;0.65;;;0.65;;
18383;SDS011;9318;48.644;9.456;2023-05-07T14:46:14;0.80;;;0.80;;
18383;SDS011;9318;48.644;9.456;2023-05-07T14:48:41;0.70;;;0.70;;
18383;SDS011;9318;48.644;9.456;2023-05-07T14:51:09;0.70;;;0.70;;
18383;SDS011;9318;48.644;9.456;2023-05-07T14:53:36;0.80;;;0.80;;
18383;SDS011;9318;48.644;9.456;2023-05-07T14:56:03;0.63;;;0.63;;
18383;SDS011;9318;48.644;9.456;2023-05-07T14:58:31;0.80;;;0.80;;
18383;SDS011;9318;48.644;9.456;2023-05-07T15:00:58;0.60;;;0.60;;
18383;SDS011;9318;48.644;9.456;2023-05-07T15:03:25;0.75;;;0.75;;
18383;SDS011;9318;48.644;9.456;2023-05-07T15:05:53;0.80;;;0.80;;
18383;SDS011;9318;48.644;9.456;2023-05-07T15:08:20;0.70;;;0.70;;
18383;SDS011;9318;48.644;9.456;2023-05-07T15:10:46;0.68;;;0.68;;
18383;SDS011;9318;48.644;9.456;2023-05-07T15:13:13;0.80;;;0.80;;
18383;SDS011;9318;48.644;9.456;2023-05-07T15:15:41;0.65;;;0.65;;
18383;SDS011;9318;48.644;9.456;2023-05-07T15:18:09;0.70;;;0.70;;
18383;SDS011;9318;48.644;9.456;2023-05-07T15:20:36;0.80;;;0.80;;
18383;SDS011;9318;48.644;9.456;2023-05-07T15:23:03;0.80;;;0.80;;